Time;durP1;ratioP1;P1;durP2;ratioP2;P2;SDS_P1;SDS_P2;PMS_P1;PMS_P2;Temp;Humidity;BMP_temperature;BMP_pressure;BME280_temperature;BME280_humidity;BME280_pressure;Samples;Min_cycle;Max_cycle;Signal;HPM_P1;HPM_P2
2022/12/07 00:01:25;;;;;;;10.23;3.08;;;3.00;99.90;;;;;;5061713;28;20127;-85
2022/12/07 00:03:56;;;;;;;11.73;2.50;;;2.60;99.90;;;;;;5094176;28;20070;-85
2022/12/07 00:06:23;;;;;;;6.25;2.20;;;2.60;99.90;;;;;;5094106;28;20447;-85
2022/12/07 00:08:50;;;;;;;7.93;3.00;;;2.60;99.90;;;;;;5093804;28;20083;-85
2022/12/07 00:11:19;;;;;;;11.27;2.15;;;3.10;99.90;;;;;;5077444;28;20052;-85
2022/12/07 00:13:51;;;;;;;12.35;1.92;;;3.00;99.90;;;;;;5093270;28;20592;-85
2022/12/07 00:16:20;;;;;;;6.75;1.50;;;2.70;99.90;;;;;;5093861;28;20520;-85
2022/12/07 00:18:46;;;;;;;7.65;1.75;;;2.70;99.90;;;;;;5094102;28;20040;-85
2022/12/07 00:21:13;;;;;;;7.22;2.60;;;2.70;99.90;;;;;;5077333;28;20039;-85
2022/12/07 00:23:41;;;;;;;9.05;1.98;;;2.70;99.90;;;;;;5110852;28;20048;-85
2022/12/07 00:26:23;;;;;;;9.82;2.13;;;2.70;99.90;;;;;;5110422;28;20400;-85
2022/12/07 00:28:52;;;;;;;10.20;2.10;;;2.70;99.90;;;;;;5093410;28;20817;-85
2022/12/07 00:31:22;;;;;;;10.20;2.15;;;3.00;99.90;;;;;;5093862;28;20040;-85
2022/12/07 00:33:48;;;;;;;7.32;2.08;;;2.70;99.90;;;;;;5076911;28;20036;-85
2022/12/07 00:36:18;;;;;;;13.55;1.73;;;2.70;99.90;;;;;;5110200;28;20040;-85
2022/12/07 00:38:45;;;;;;;6.10;1.35;;;2.70;99.90;;;;;;5093320;28;20454;-85
2022/12/07 00:41:15;;;;;;;6.40;1.33;;;2.80;99.90;;;;;;5109813;28;20036;-85
2022/12/07 00:43:43;;;;;;;5.80;1.27;;;2.80;99.90;;;;;;5093879;28;20093;-84
2022/12/07 00:46:10;;;;;;;5.32;1.23;;;2.70;99.90;;;;;;5093532;28;20131;-84
2022/12/07 00:48:37;;;;;;;5.85;1.20;;;3.10;99.90;;;;;;5093467;28;20044;-85
2022/12/07 00:51:05;;;;;;;8.18;1.10;;;2.90;99.90;;;;;;5109727;28;20048;-85
2022/12/07 00:53:34;;;;;;;6.78;0.80;;;3.50;99.90;;;;;;5076705;28;20078;-85
2022/12/07 00:56:09;;;;;;;6.25;1.10;;;3.00;99.90;;;;;;5109997;28;20101;-85
2022/12/07 00:58:35;;;;;;;3.25;0.80;;;3.40;99.90;;;;;;5093458;28;20514;-85
2022/12/07 01:01:04;;;;;;;6.80;1.35;;;4.10;99.90;;;;;;5060274;28;20036;-86
2022/12/07 01:03:31;;;;;;;6.10;0.80;;;3.30;99.90;;;;;;5093601;28;20043;-85
2022/12/07 01:05:59;;;;;;;4.47;0.82;;;4.20;99.90;;;;;;5076590;28;20036;-86
2022/12/07 01:08:27;;;;;;;7.00;0.80;;;3.60;99.90;;;;;;5093483;28;20039;-86
2022/12/07 01:11:05;;;;;;;8.45;1.50;;;3.70;99.90;;;;;;5092624;28;20488;-86
2022/12/07 01:13:34;;;;;;;4.63;0.88;;;3.60;99.90;;;;;;5110099;28;20040;-85
2022/12/07 01:16:04;;;;;;;1.40;0.60;;;3.70;99.90;;;;;;5109677;28;20078;-86
2022/12/07 01:18:34;;;;;;;5.55;0.90;;;3.70;99.90;;;;;;5093276;28;20036;-85
2022/12/07 01:21:03;;;;;;;5.00;1.10;;;4.00;99.90;;;;;;5093230;28;20032;-86
2022/12/07 01:23:30;;;;;;;5.30;0.60;;;3.60;99.90;;;;;;5093050;28;20032;-83
2022/12/07 01:25:59;;;;;;;3.28;0.70;;;3.60;99.90;;;;;;5075371;28;20036;-86
2022/12/07 01:28:26;;;;;;;9.25;1.33;;;3.60;99.90;;;;;;5060278;28;20420;-85
2022/12/07 01:31:01;;;;;;;6.80;0.75;;;3.60;99.90;;;;;;5093064;28;20040;-85
2022/12/07 01:33:30;;;;;;;8.27;1.05;;;3.60;99.90;;;;;;5109922;28;20073;-85
2022/12/07 01:36:10;;;;;;;4.43;0.75;;;3.60;99.90;;;;;;5109327;28;20089;-85
2022/12/07 01:38:37;;;;;;;9.52;1.00;;;3.60;99.90;;;;;;5092939;28;20094;-86
2022/12/07 01:41:04;;;;;;;5.20;1.10;;;3.60;99.90;;;;;;5075876;28;20075;-85
2022/12/07 01:43:33;;;;;;;10.13;1.13;;;3.60;99.90;;;;;;5093220;28;20040;-85
2022/12/07 01:46:01;;;;;;;7.72;0.95;;;3.60;99.90;;;;;;5092873;28;20044;-85
2022/12/07 01:48:29;;;;;;;13.30;1.02;;;3.60;99.90;;;;;;5092786;28;20511;-85
2022/12/07 01:50:59;;;;;;;6.05;0.75;;;3.60;99.90;;;;;;5092430;28;20488;-85
2022/12/07 01:53:29;;;;;;;12.10;1.15;;;3.60;99.90;;;;;;5109184;28;20040;-85
2022/12/07 01:55:57;;;;;;;8.23;1.00;;;3.60;99.90;;;;;;5092631;28;20040;-84
2022/12/07 01:58:24;;;;;;;7.30;1.00;;;3.60;99.90;;;;;;5093069;28;20040;-86
2022/12/07 02:00:51;;;;;;;8.35;1.45;;;4.20;99.90;;;;;;5059652;28;20485;-85
2022/12/07 02:03:32;;;;;;;6.72;0.70;;;3.60;99.90;;;;;;5075611;28;20047;-85
2022/12/07 02:06:00;;;;;;;8.35;0.75;;;3.60;99.90;;;;;;5092270;28;20040;-85
2022/12/07 02:08:27;;;;;;;10.45;1.13;;;3.60;99.90;;;;;;5109202;28;20048;-85
2022/12/07 02:10:54;;;;;;;6.43;1.00;;;3.60;99.90;;;;;;5059426;28;20098;-85
2022/12/07 02:13:27;;;;;;;10.15;1.17;;;4.50;99.90;;;;;;5074808;28;20715;-85
2022/12/07 02:16:12;;;;;;;6.65;1.00;;;3.70;99.90;;;;;;5108142;28;20404;-85
2022/12/07 02:18:48;;;;;;;4.75;0.80;;;3.80;99.90;;;;;;5091840;28;20110;-85
2022/12/07 02:21:33;;;;;;;6.15;1.23;;;3.80;99.90;;;;;;5091028;28;20048;-85
2022/12/07 02:24:37;;;;;;;3.95;0.80;;;3.90;99.90;;;;;;5091266;28;20044;-82
2022/12/07 02:27:41;;;;;;;4.65;0.95;;;3.90;99.90;;;;;;5091510;28;20043;-85
2022/12/07 02:30:11;;;;;;;3.95;0.82;;;3.80;99.90;;;;;;5091318;28;20128;-85
2022/12/07 02:32:42;;;;;;;4.95;1.02;;;3.90;99.90;;;;;;5091327;28;20043;-85
2022/12/07 02:35:26;;;;;;;6.70;1.00;;;3.70;99.90;;;;;;5091329;28;20032;-84
2022/12/07 02:38:01;;;;;;;3.20;0.60;;;3.70;99.90;;;;;;5092907;28;20079;-85
2022/12/07 02:40:34;;;;;;;4.68;0.65;;;3.90;99.90;;;;;;5094669;28;20043;-85
2022/12/07 02:43:28;;;;;;;6.18;0.95;;;4.00;99.90;;;;;;5094153;28;20051;-84
2022/12/07 02:46:01;;;;;;;7.88;0.80;;;3.40;99.90;;;;;;5110882;28;20138;-85
2022/12/07 02:48:28;;;;;;;4.13;0.80;;;3.40;99.90;;;;;;5111259;28;20047;-84
2022/12/07 02:50:55;;;;;;;7.78;0.85;;;3.30;99.90;;;;;;5077584;28;20067;-84
2022/12/07 02:53:32;;;;;;;4.13;0.68;;;3.30;99.90;;;;;;5061210;28;20044;-84
2022/12/07 02:56:11;;;;;;;10.63;1.20;;;3.30;99.90;;;;;;5094302;28;20044;-85
2022/12/07 02:58:57;;;;;;;4.30;1.00;;;3.20;99.90;;;;;;5094443;28;20112;-85
2022/12/07 03:01:31;;;;;;;5.57;0.77;;;3.80;99.90;;;;;;5094133;28;20119;-85
2022/12/07 03:04:29;;;;;;;6.93;1.08;;;3.20;99.90;;;;;;5094058;28;20109;-84
2022/12/07 03:07:30;;;;;;;4.55;0.88;;;3.20;99.90;;;;;;5075414;28;20511;-84
2022/12/07 03:10:06;;;;;;;6.07;0.90;;;3.20;99.90;;;;;;5094441;28;20040;-84
2022/12/07 03:12:43;;;;;;;7.45;1.20;;;3.20;99.90;;;;;;5054027;28;1160679;-85
2022/12/07 03:15:34;;;;;;;5.65;0.73;;;3.20;99.90;;;;;;5111104;28;20048;-85
2022/12/07 03:18:03;;;;;;;4.28;0.90;;;3.30;99.90;;;;;;5087538;28;20044;-85
2022/12/07 03:20:32;;;;;;;3.50;0.80;;;3.40;99.90;;;;;;5078175;28;20040;-85
2022/12/07 03:22:59;;;;;;;8.50;0.80;;;3.40;99.90;;;;;;5094967;28;20133;-85
2022/12/07 03:25:27;;;;;;;6.10;1.20;;;3.40;99.90;;;;;;5094778;28;20078;-85
2022/12/07 03:28:04;;;;;;;6.63;0.90;;;3.40;99.90;;;;;;5078811;28;20051;-85
2022/12/07 03:31:03;;;;;;;4.63;0.70;;;3.40;99.90;;;;;;5094774;28;20043;-85
2022/12/07 03:33:40;;;;;;;5.75;0.70;;;3.40;99.90;;;;;;5102974;28;20119;-85
2022/12/07 03:36:13;;;;;;;7.13;0.90;;;3.90;99.90;;;;;;5094706;28;20146;-85
2022/12/07 03:38:47;;;;;;;6.85;0.75;;;3.90;99.90;;;;;;5111636;28;20488;-86
2022/12/07 03:41:24;;;;;;;5.20;0.85;;;4.00;99.90;;;;;;5094397;28;20545;-85
2022/12/07 03:43:53;;;;;;;5.50;0.75;;;3.30;99.90;;;;;;5094865;28;20047;-85
2022/12/07 03:46:36;;;;;;;8.95;0.90;;;3.20;99.90;;;;;;5094794;28;20032;-85
2022/12/07 03:49:14;;;;;;;6.15;1.17;;;3.20;99.90;;;;;;5093511;28;20090;-85
2022/12/07 03:51:53;;;;;;;9.88;1.15;;;3.10;99.90;;;;;;5094250;28;20113;-85
2022/12/07 03:54:38;;;;;;;6.93;0.73;;;3.10;99.90;;;;;;5094202;28;20500;-85
2022/12/07 03:57:06;;;;;;;3.38;0.68;;;3.10;99.90;;;;;;5094409;28;20511;-85
2022/12/07 03:59:34;;;;;;;10.02;0.90;;;3.00;99.90;;;;;;5094274;28;20127;-85
2022/12/07 04:02:06;;;;;;;5.90;0.90;;;3.00;99.90;;;;;;5077865;28;20119;-85
2022/12/07 04:04:34;;;;;;;5.30;0.85;;;3.30;99.90;;;;;;5093937;28;20035;-85
2022/12/07 04:07:00;;;;;;;5.70;0.90;;;3.00;99.90;;;;;;5094313;28;20040;-85
2022/12/07 04:09:27;;;;;;;7.72;0.95;;;4.00;99.90;;;;;;5077518;28;20556;-85
2022/12/07 04:11:54;;;;;;;5.78;1.25;;;3.10;99.90;;;;;;5094498;28;20048;-85
2022/12/07 04:14:20;;;;;;;6.18;0.70;;;3.10;99.90;;;;;;5077418;28;20200;-85
2022/12/07 04:16:49;;;;;;;5.63;1.30;;;3.20;99.90;;;;;;5060824;28;20157;-85
2022/12/07 04:19:18;;;;;;;4.88;1.23;;;3.20;99.90;;;;;;5093962;28;20419;-85
2022/12/07 04:21:45;;;;;;;3.40;1.05;;;3.30;99.90;;;;;;5093908;28;20404;-85
2022/12/07 04:24:14;;;;;;;4.82;0.90;;;3.10;99.90;;;;;;5094146;28;20036;-85
2022/12/07 04:26:41;;;;;;;5.60;1.13;;;3.10;99.90;;;;;;5093660;28;20043;-85
2022/12/07 04:29:09;;;;;;;4.75;0.68;;;3.10;99.90;;;;;;5093800;28;20051;-85
2022/12/07 04:31:36;;;;;;;4.95;0.70;;;3.40;99.90;;;;;;5093337;28;20500;-84
2022/12/07 04:34:04;;;;;;;8.27;0.85;;;3.10;99.90;;;;;;5096519;28;20048;-84
2022/12/07 04:36:32;;;;;;;6.40;0.70;;;3.00;99.90;;;;;;5060564;28;20043;-84
2022/12/07 04:38:58;;;;;;;7.45;1.20;;;3.60;99.90;;;;;;5076556;28;20043;-85
2022/12/07 04:41:28;;;;;;;3.90;0.82;;;3.50;99.90;;;;;;5076625;28;20472;-84
2022/12/07 04:44:00;;;;;;;2.88;0.73;;;3.80;99.90;;;;;;5061054;28;20071;-85
2022/12/07 04:46:28;;;;;;;4.15;0.60;;;2.90;99.90;;;;;;5093045;28;20067;-85
2022/12/07 04:48:56;;;;;;;3.80;0.70;;;3.00;99.90;;;;;;5076816;28;20446;-84
2022/12/07 04:51:26;;;;;;;3.67;0.75;;;3.90;99.90;;;;;;5093293;28;20484;-84
2022/12/07 04:53:53;;;;;;;5.45;0.70;;;3.00;99.90;;;;;;5093489;28;20114;-85
2022/12/07 04:56:20;;;;;;;3.63;1.05;;;3.00;99.90;;;;;;5076796;28;20036;-85
2022/12/07 04:58:47;;;;;;;3.35;0.77;;;3.40;99.90;;;;;;5092965;28;20500;-84
2022/12/07 05:01:16;;;;;;;4.88;0.80;;;3.10;99.90;;;;;;5076449;28;20042;-85
2022/12/07 05:03:45;;;;;;;2.33;0.63;;;4.00;99.90;;;;;;5076568;28;20091;-85
2022/12/07 05:06:13;;;;;;;4.30;0.60;;;3.70;99.90;;;;;;5076886;28;20036;-84
2022/12/07 05:08:39;;;;;;;5.28;0.68;;;3.10;99.90;;;;;;5092883;28;20062;-85
2022/12/07 05:11:07;;;;;;;7.10;0.88;;;3.10;99.90;;;;;;5093060;28;20039;-85
2022/12/07 05:13:35;;;;;;;6.68;0.98;;;3.40;99.90;;;;;;5060029;28;20803;-84
2022/12/07 05:16:02;;;;;;;5.65;0.70;;;3.20;99.90;;;;;;5093069;28;20071;-84
2022/12/07 05:18:29;;;;;;;5.03;0.60;;;3.10;99.90;;;;;;5076424;28;20118;-84
2022/12/07 05:20:55;;;;;;;9.20;1.13;;;3.10;99.90;;;;;;5076443;28;20151;-84
2022/12/07 05:23:22;;;;;;;3.05;0.70;;;3.40;99.90;;;;;;5076712;28;20036;-84
2022/12/07 05:25:49;;;;;;;9.57;1.42;;;3.10;99.90;;;;;;5076404;28;20075;-85
2022/12/07 05:28:16;;;;;;;7.75;0.75;;;3.10;99.90;;;;;;5076592;28;20127;-84
2022/12/07 05:30:42;;;;;;;8.07;0.77;;;3.00;99.90;;;;;;5092661;28;20130;-84
2022/12/07 05:33:09;;;;;;;4.50;0.85;;;3.20;99.90;;;;;;5092905;28;20048;-85
2022/12/07 05:35:37;;;;;;;6.45;0.90;;;2.90;99.90;;;;;;5092754;28;20051;-84
2022/12/07 05:38:04;;;;;;;8.07;0.85;;;3.70;99.90;;;;;;5075862;28;20040;-84
2022/12/07 05:40:31;;;;;;;5.07;0.77;;;3.00;99.90;;;;;;5076174;28;20036;-84
2022/12/07 05:42:57;;;;;;;3.47;0.68;;;3.00;99.90;;;;;;5075976;28;20046;-85
2022/12/07 05:45:24;;;;;;;2.97;0.70;;;2.80;99.90;;;;;;5059413;28;20047;-84
2022/12/07 05:47:51;;;;;;;4.25;0.88;;;3.80;99.90;;;;;;5059458;28;20036;-84
2022/12/07 05:50:17;;;;;;;5.80;1.00;;;2.80;99.90;;;;;;5092538;28;20042;-84
2022/12/07 05:52:44;;;;;;;5.30;0.90;;;2.80;99.90;;;;;;5075943;28;20084;-84
2022/12/07 05:55:11;;;;;;;4.93;1.13;;;2.80;99.90;;;;;;5076096;28;20047;-84
2022/12/07 05:57:37;;;;;;;6.18;1.15;;;2.70;99.90;;;;;;5059588;28;20040;-84
2022/12/07 06:00:06;;;;;;;8.23;0.85;;;2.70;99.90;;;;;;5075964;28;20040;-84
2022/12/07 06:02:33;;;;;;;5.07;0.80;;;2.70;99.90;;;;;;5075922;28;20044;-82
2022/12/07 06:05:03;;;;;;;4.50;0.77;;;3.00;99.90;;;;;;5060852;28;20066;-84
2022/12/07 06:07:29;;;;;;;7.43;1.75;;;2.80;99.90;;;;;;5059408;28;20040;-84
2022/12/07 06:09:56;;;;;;;10.35;1.38;;;3.50;99.90;;;;;;5075788;28;20051;-84
2022/12/07 06:12:34;;;;;;;5.45;0.90;;;2.80;99.90;;;;;;5061153;28;20059;-84
2022/12/07 06:15:01;;;;;;;3.75;0.75;;;2.80;99.90;;;;;;5083206;28;20054;-84
2022/12/07 06:17:28;;;;;;;2.70;0.80;;;2.80;99.90;;;;;;5079547;28;20040;-84
2022/12/07 06:19:55;;;;;;;5.25;0.88;;;3.10;99.90;;;;;;5096012;28;20043;-84
2022/12/07 06:22:21;;;;;;;4.65;0.80;;;2.70;99.90;;;;;;5079661;28;20064;-84
2022/12/07 06:24:48;;;;;;;12.02;1.33;;;2.60;99.90;;;;;;5095658;28;20442;-84
2022/12/07 06:27:15;;;;;;;2.25;0.88;;;2.60;99.90;;;;;;5079161;28;20080;-84
2022/12/07 06:29:42;;;;;;;5.45;1.13;;;2.50;99.90;;;;;;5062524;28;20040;-84
2022/12/07 06:32:08;;;;;;;3.70;0.82;;;2.40;99.90;;;;;;5062893;28;20040;-84
2022/12/07 06:34:35;;;;;;;6.40;1.30;;;2.50;99.90;;;;;;5079409;28;20040;-84
2022/12/07 06:37:03;;;;;;;7.93;1.17;;;2.40;99.90;;;;;;5095691;28;20040;-84
2022/12/07 06:39:30;;;;;;;5.45;1.00;;;2.50;99.90;;;;;;5095908;28;20074;-84
2022/12/07 06:41:57;;;;;;;6.55;0.85;;;2.40;99.90;;;;;;5075249;28;20048;-84
2022/12/07 06:44:24;;;;;;;6.47;0.80;;;2.40;99.90;;;;;;5059026;28;20040;-84
2022/12/07 06:46:51;;;;;;;2.47;0.90;;;2.50;99.90;;;;;;5075496;28;20399;-84
2022/12/07 06:49:18;;;;;;;7.50;0.90;;;2.50;99.90;;;;;;5075533;28;20040;-84
2022/12/07 06:51:45;;;;;;;5.55;1.30;;;2.50;99.90;;;;;;5070267;28;20046;-84
2022/12/07 06:54:14;;;;;;;9.15;1.15;;;2.50;99.90;;;;;;5095560;28;20047;-84
2022/12/07 06:56:41;;;;;;;6.90;1.00;;;2.90;99.90;;;;;;5079189;28;20040;-85
2022/12/07 06:59:08;;;;;;;9.27;1.10;;;2.60;99.90;;;;;;5079060;28;20040;-85
2022/12/07 07:01:35;;;;;;;6.72;1.27;;;2.90;99.90;;;;;;5078793;28;20032;-85
2022/12/07 07:04:03;;;;;;;6.72;1.55;;;2.60;99.90;;;;;;5078879;28;20381;-85
2022/12/07 07:06:29;;;;;;;8.73;1.20;;;2.60;99.90;;;;;;5078703;28;20109;-85
2022/12/07 07:08:56;;;;;;;8.63;1.20;;;2.50;99.90;;;;;;5078667;28;20388;-85
2022/12/07 07:11:23;;;;;;;5.57;1.17;;;2.90;99.90;;;;;;5078604;28;20036;-85
2022/12/07 07:13:49;;;;;;;6.75;1.00;;;2.60;99.90;;;;;;5061982;28;20044;-85
2022/12/07 07:16:16;;;;;;;9.75;1.20;;;2.50;99.90;;;;;;5061498;28;20036;-85
2022/12/07 07:18:43;;;;;;;4.90;0.95;;;3.70;99.90;;;;;;5078109;28;20127;-84
2022/12/07 07:21:09;;;;;;;11.15;1.27;;;2.50;99.90;;;;;;5061256;28;20036;-85
2022/12/07 07:23:36;;;;;;;7.07;1.40;;;2.90;99.90;;;;;;5088992;28;20054;-83
2022/12/07 07:26:03;;;;;;;10.13;1.05;;;2.70;99.90;;;;;;5114605;28;20032;-84
2022/12/07 07:28:30;;;;;;;5.93;1.00;;;2.30;99.90;;;;;;5113034;28;20043;-83
2022/12/07 07:30:56;;;;;;;6.18;1.50;;;2.30;99.90;;;;;;5111157;28;20039;-83
2022/12/07 07:33:23;;;;;;;8.52;1.40;;;3.10;99.90;;;;;;5060555;28;20125;-83
2022/12/07 07:35:50;;;;;;;5.57;1.05;;;2.30;99.90;;;;;;5067128;28;20123;-83
2022/12/07 07:38:16;;;;;;;5.72;1.20;;;2.20;99.90;;;;;;5091670;28;20051;-83
2022/12/07 07:40:43;;;;;;;11.68;1.73;;;2.30;99.90;;;;;;5088830;28;20038;-84
2022/12/07 07:43:10;;;;;;;5.43;1.38;;;2.10;99.90;;;;;;5071857;28;20039;-83
2022/12/07 07:45:36;;;;;;;7.78;1.50;;;2.60;99.90;;;;;;5077352;28;20050;-83
2022/12/07 07:48:03;;;;;;;6.75;1.30;;;2.10;99.90;;;;;;5075761;28;20097;-83
2022/12/07 07:50:30;;;;;;;6.20;1.38;;;2.10;99.90;;;;;;5098550;28;20048;-83
2022/12/07 07:53:00;;;;;;;7.80;1.80;;;2.10;99.90;;;;;;5077293;28;20039;-83
2022/12/07 07:55:26;;;;;;;4.57;1.23;;;2.10;99.90;;;;;;5077816;28;20044;-83
2022/12/07 07:57:54;;;;;;;6.82;1.48;;;2.20;99.90;;;;;;5077255;28;20113;-83
2022/12/07 08:00:22;;;;;;;5.18;1.50;;;2.20;99.90;;;;;;5077300;28;20067;-82
2022/12/07 08:02:48;;;;;;;10.00;1.00;;;2.30;99.90;;;;;;5093770;28;20446;-83
2022/12/07 08:05:15;;;;;;;8.65;1.50;;;2.40;99.90;;;;;;5079905;28;20039;-84
2022/12/07 08:07:43;;;;;;;6.13;1.17;;;2.40;99.90;;;;;;5093934;28;20078;-84
2022/12/07 08:10:11;;;;;;;5.22;1.45;;;3.10;99.90;;;;;;5093536;28;20044;-84
2022/12/07 08:13:10;;;;;;;6.30;0.98;;;2.50;99.90;;;;;;5093657;28;20139;-84
2022/12/07 08:15:29;;;;;;;8.65;1.13;;;2.50;99.90;;;;;;5110603;28;20572;-84
2022/12/07 08:17:55;;;;;;;7.72;1.08;;;2.50;99.90;;;;;;5093642;28;20450;-82
2022/12/07 08:20:22;;;;;;;6.82;1.20;;;2.50;99.90;;;;;;5092386;28;20040;-84
2022/12/07 08:22:49;;;;;;;3.92;0.82;;;2.60;99.90;;;;;;5078995;28;20036;-84
2022/12/07 08:25:16;;;;;;;6.47;0.95;;;2.70;99.90;;;;;;5076506;28;20046;-84
2022/12/07 08:27:43;;;;;;;5.45;0.82;;;2.70;99.90;;;;;;5110220;28;20486;-84
2022/12/07 08:30:10;;;;;;;3.97;0.93;;;2.70;99.90;;;;;;5076469;28;20124;-84
2022/12/07 08:32:37;;;;;;;3.38;0.80;;;2.80;99.90;;;;;;5060377;28;20040;-84
2022/12/07 08:35:03;;;;;;;5.22;1.08;;;2.80;99.90;;;;;;5093077;28;20056;-84
2022/12/07 08:37:32;;;;;;;1.77;0.80;;;2.80;99.90;;;;;;5065257;28;20040;-86
2022/12/07 08:39:59;;;;;;;4.63;1.00;;;2.90;99.90;;;;;;5107942;28;20147;-84
2022/12/07 08:42:29;;;;;;;4.18;0.77;;;3.40;99.90;;;;;;5101502;28;20063;-84
2022/12/07 08:44:56;;;;;;;8.55;1.15;;;3.00;99.90;;;;;;5093783;28;20044;-84
2022/12/07 08:47:25;;;;;;;4.78;0.85;;;3.50;99.90;;;;;;5091999;28;20040;-85
2022/12/07 08:49:53;;;;;;;2.00;0.65;;;3.60;99.90;;;;;;5092084;28;20040;-85
2022/12/07 08:52:20;;;;;;;2.72;0.90;;;3.70;99.90;;;;;;5092891;28;20044;-86
2022/12/07 08:54:47;;;;;;;8.57;0.90;;;3.50;99.90;;;;;;5089276;28;20036;-85
2022/12/07 08:57:14;;;;;;;2.25;0.85;;;3.20;99.90;;;;;;5092634;28;20126;-85
2022/12/07 08:59:41;;;;;;;6.82;1.40;;;3.60;99.90;;;;;;5059652;28;20131;-85
2022/12/07 09:02:08;;;;;;;4.40;1.27;;;3.30;99.90;;;;;;5092670;28;20040;-85
2022/12/07 09:04:34;;;;;;;4.85;1.10;;;4.20;99.90;;;;;;5076617;28;20032;-84
2022/12/07 09:07:01;;;;;;;4.13;0.98;;;3.80;99.90;;;;;;5076072;28;20036;-85
2022/12/07 09:09:28;;;;;;;4.72;0.80;;;3.40;99.90;;;;;;5096268;28;20040;-86
2022/12/07 09:11:55;;;;;;;5.90;1.23;;;3.40;99.90;;;;;;5075848;28;20055;-84
2022/12/07 09:14:22;;;;;;;4.43;1.13;;;4.00;99.90;;;;;;5060220;28;20105;-86
2022/12/07 09:16:48;;;;;;;5.00;0.80;;;3.40;99.90;;;;;;5076425;28;20040;-82
2022/12/07 09:19:15;;;;;;;3.22;0.82;;;4.40;99.90;;;;;;5110859;28;20404;-85
2022/12/07 09:21:42;;;;;;;2.55;0.70;;;3.50;99.90;;;;;;5075828;28;20381;-83
2022/12/07 09:24:09;;;;;;;5.28;0.93;;;3.70;99.90;;;;;;5075924;28;20147;-84
2022/12/07 09:26:35;;;;;;;6.05;0.70;;;3.40;99.90;;;;;;5095446;28;20035;-85
2022/12/07 09:29:03;;;;;;;5.18;0.75;;;4.00;99.90;;;;;;5054245;28;20414;-83
2022/12/07 09:31:29;;;;;;;7.75;0.80;;;3.50;99.90;;;;;;5088807;28;20060;-83
2022/12/07 09:34:00;;;;;;;3.55;0.82;;;3.50;99.90;;;;;;5077764;28;20074;-83
2022/12/07 09:36:28;;;;;;;3.38;0.95;;;3.50;99.90;;;;;;5072601;28;20047;-84
2022/12/07 09:38:55;;;;;;;4.68;1.13;;;3.80;99.90;;;;;;5079647;28;20440;-84
2022/12/07 09:41:23;;;;;;;3.63;0.85;;;3.60;99.90;;;;;;5063736;28;20082;-84
2022/12/07 09:43:51;;;;;;;5.82;1.38;;;4.10;99.90;;;;;;5101137;28;20480;-84
2022/12/07 09:46:20;;;;;;;3.35;0.77;;;4.30;99.90;;;;;;5066796;28;20064;-84
2022/12/07 09:48:48;;;;;;;7.32;0.80;;;3.70;99.90;;;;;;5092176;28;20051;-84
2022/12/07 09:51:21;;;;;;;2.28;0.73;;;3.80;99.90;;;;;;5073402;28;20044;-85
2022/12/07 09:53:48;;;;;;;7.88;1.65;;;4.20;99.90;;;;;;5091245;28;20036;-86
2022/12/07 09:56:16;;;;;;;3.90;0.90;;;3.90;99.90;;;;;;5055861;28;20185;-84
2022/12/07 09:58:44;;;;;;;8.45;1.08;;;4.10;99.90;;;;;;5077508;28;20381;-83
2022/12/07 10:01:15;;;;;;;2.83;0.70;;;4.20;99.90;;;;;;5112018;28;20036;-83
2022/12/07 10:04:16;;;;;;;2.45;1.00;;;4.20;99.90;;;;;;5111776;28;20028;-83
2022/12/07 10:06:43;;;;;;;4.80;1.13;;;4.30;99.90;;;;;;5092092;28;20055;-83
2022/12/07 10:09:14;;;;;;;5.10;1.20;;;4.50;99.90;;;;;;5073848;28;20078;-85
2022/12/07 10:12:13;;;;;;;4.38;1.13;;;4.50;99.90;;;;;;5089571;28;20127;-83
2022/12/07 10:14:54;;;;;;;6.88;1.50;;;4.50;99.90;;;;;;5095199;28;20044;-84
2022/12/07 10:17:40;;;;;;;4.97;0.93;;;4.50;99.90;;;;;;5095397;28;20127;-85
2022/12/07 10:20:23;;;;;;;7.30;1.15;;;4.50;99.90;;;;;;5092417;28;20105;-83
2022/12/07 10:23:14;;;;;;;9.32;1.25;;;4.60;99.90;;;;;;5092151;28;20032;-84
2022/12/07 10:25:42;;;;;;;6.30;1.15;;;4.60;99.90;;;;;;5100730;28;20044;-83
2022/12/07 10:28:16;;;;;;;8.15;0.95;;;4.60;99.90;;;;;;5081810;28;20563;-86
2022/12/07 10:30:58;;;;;;;9.90;1.23;;;4.70;99.90;;;;;;5109012;28;20163;-86
2022/12/07 10:33:31;;;;;;;4.28;1.00;;;4.80;99.90;;;;;;5091313;28;20051;-83
2022/12/07 10:35:59;;;;;;;7.95;2.00;;;4.80;99.90;;;;;;5094115;28;20055;-86
2022/12/07 10:38:27;;;;;;;11.65;1.58;;;5.70;99.90;;;;;;5061881;28;20040;-85
2022/12/07 10:41:07;;;;;;;5.53;1.00;;;4.90;99.90;;;;;;5110814;28;20036;-85
2022/12/07 10:43:34;;;;;;;15.13;1.40;;;5.00;99.90;;;;;;5089700;28;20033;-85
2022/12/07 10:46:38;;;;;;;9.43;1.30;;;5.40;99.90;;;;;;5062597;28;20171;-85
2022/12/07 10:49:07;;;;;;;10.70;1.20;;;5.00;99.90;;;;;;5092101;28;20052;-85
2022/12/07 10:52:03;;;;;;;9.93;1.30;;;5.00;99.90;;;;;;5108353;28;20097;-85
2022/12/07 10:54:57;;;;;;;5.18;1.00;;;5.00;99.90;;;;;;5113969;28;20411;-86
2022/12/07 10:57:43;;;;;;;11.48;2.10;;;5.00;99.90;;;;;;5088883;28;20042;-87
2022/12/07 11:00:21;;;;;;;;;;;5.00;99.90;;;;;;5094999;28;20039;-85
2022/12/07 11:02:59;;;;;;;8.50;1.20;;;4.90;99.90;;;;;;5094184;28;19920;-85
2022/12/07 11:05:46;;;;;;;7.25;1.20;;;4.90;99.90;;;;;;5099943;28;20434;-85
2022/12/07 11:08:36;;;;;;;4.97;1.23;;;4.90;99.90;;;;;;5093586;28;20408;-82
2022/12/07 11:11:23;;;;;;;7.88;1.23;;;4.90;99.90;;;;;;5093762;28;20048;-84
2022/12/07 11:14:12;;;;;;;4.60;0.90;;;4.90;99.90;;;;;;5090086;28;20597;-83
2022/12/07 11:16:39;;;;;;;10.13;1.10;;;4.90;99.90;;;;;;5074278;28;20124;-84
2022/12/07 11:19:27;;;;;;;6.28;1.00;;;5.00;99.90;;;;;;5072158;28;20320;-84
2022/12/07 11:21:58;;;;;;;5.53;0.80;;;5.00;99.90;;;;;;5074366;28;20090;-84
2022/12/07 11:24:57;;;;;;;11.50;0.82;;;5.00;99.90;;;;;;5073409;28;20046;-83
2022/12/07 11:27:34;;;;;;;6.38;1.20;;;5.00;99.90;;;;;;5056540;28;20128;-84
2022/12/07 11:30:13;;;;;;;5.47;0.88;;;5.00;99.90;;;;;;5076590;28;20036;-84
2022/12/07 11:33:22;;;;;;;4.03;0.90;;;5.00;99.90;;;;;;5066693;28;20071;-83
2022/12/07 11:36:22;;;;;;;2.25;0.63;;;5.00;99.90;;;;;;5090655;28;20037;-84
2022/12/07 11:39:07;;;;;;;2.75;0.50;;;5.00;99.90;;;;;;5074316;28;20098;-84
2022/12/07 11:41:37;;;;;;;1.80;0.70;;;5.00;99.90;;;;;;5073472;28;20532;-84
2022/12/07 11:44:08;;;;;;;6.22;0.98;;;5.00;99.90;;;;;;5073811;28;20107;-83
2022/12/07 11:46:50;;;;;;;3.75;0.95;;;4.90;99.90;;;;;;5089659;28;20132;-84
2022/12/07 11:49:44;;;;;;;9.27;0.90;;;4.90;99.90;;;;;;5073399;28;20044;-83
2022/12/07 11:52:19;;;;;;;5.82;0.85;;;4.90;99.90;;;;;;5063344;28;20459;-83
2022/12/07 11:54:49;;;;;;;10.13;1.13;;;5.00;99.90;;;;;;5089952;28;20539;-83
2022/12/07 11:57:25;;;;;;;6.10;1.17;;;5.00;99.90;;;;;;5074649;28;20048;-83
2022/12/07 11:59:59;;;;;;;11.68;1.25;;;5.10;99.90;;;;;;5081089;28;20554;-83
2022/12/07 12:02:38;;;;;;;9.23;1.33;;;5.20;99.90;;;;;;5073123;28;20037;-84
2022/12/07 12:05:20;;;;;;;8.30;1.30;;;5.20;99.90;;;;;;5072762;28;20043;-83
2022/12/07 12:08:03;;;;;;;7.22;1.00;;;5.20;99.90;;;;;;5100697;28;20055;-84
2022/12/07 12:10:59;;;;;;;5.25;0.85;;;5.40;99.90;;;;;;5076585;28;20484;-84
2022/12/07 12:13:56;;;;;;;5.53;1.00;;;5.10;99.90;;;;;;5096410;28;20143;-84
2022/12/07 12:16:41;;;;;;;7.47;1.63;;;5.10;99.90;;;;;;5121316;28;20046;-84
2022/12/07 12:19:26;;;;;;;7.65;1.25;;;5.00;99.90;;;;;;5107860;28;20131;-84
2022/12/07 12:21:59;;;;;;;9.68;2.22;;;5.10;99.90;;;;;;5106636;28;20085;-84
2022/12/07 12:24:31;;;;;;;5.45;1.30;;;5.00;99.90;;;;;;5109439;28;20484;-84
2022/12/07 12:27:06;;;;;;;3.58;0.90;;;5.00;99.90;;;;;;5109762;28;20068;-84
2022/12/07 12:29:41;;;;;;;4.40;1.00;;;4.90;99.90;;;;;;5092563;28;20040;-84
2022/12/07 12:32:19;;;;;;;4.72;1.10;;;4.90;99.90;;;;;;5092397;28;20044;-84
2022/12/07 12:35:01;;;;;;;4.13;1.10;;;4.90;99.90;;;;;;5109768;28;20043;-84
2022/12/07 12:37:33;;;;;;;6.82;1.17;;;4.80;99.90;;;;;;5091595;28;20044;-84
2022/12/07 12:40:15;;;;;;;4.50;0.90;;;4.80;99.90;;;;;;5092582;28;20036;-84
2022/12/07 12:42:48;;;;;;;6.05;0.90;;;4.80;99.90;;;;;;5092519;28;20050;-85
2022/12/07 12:45:24;;;;;;;5.97;1.20;;;4.70;99.90;;;;;;5092649;28;20072;-83
2022/12/07 12:47:58;;;;;;;6.30;2.10;;;4.70;99.90;;;;;;5114495;28;20036;-84
2022/12/07 12:50:31;;;;;;;8.93;3.97;;;4.70;99.90;;;;;;5092175;28;20036;-84
2022/12/07 12:53:12;;;;;;;4.28;0.90;;;4.60;99.90;;;;;;5109270;28;20028;-84
2022/12/07 12:55:42;;;;;;;7.93;1.30;;;4.50;99.90;;;;;;5091948;28;20094;-84
2022/12/07 12:58:18;;;;;;;4.55;1.35;;;4.50;99.90;;;;;;5092415;28;20048;-84
2022/12/07 13:00:46;;;;;;;8.60;1.30;;;4.40;99.90;;;;;;5108577;28;20050;-84
2022/12/07 13:03:25;;;;;;;3.80;0.82;;;4.40;99.90;;;;;;5091940;28;20043;-84
2022/12/07 13:06:26;;;;;;;2.75;0.90;;;4.50;99.90;;;;;;5100618;28;20480;-82
2022/12/07 13:08:57;;;;;;;5.80;0.98;;;4.20;99.90;;;;;;5116127;28;20376;-83
2022/12/07 13:11:30;;;;;;;4.30;1.13;;;4.20;99.90;;;;;;5112998;28;20492;-82
2022/12/07 13:14:40;;;;;;;2.80;1.00;;;4.40;99.90;;;;;;5108054;28;20100;-84
2022/12/07 13:17:31;;;;;;;4.28;1.17;;;4.10;99.90;;;;;;5089432;28;20113;-81
2022/12/07 13:20:03;;;;;;;4.55;1.08;;;4.00;99.90;;;;;;5083756;28;20048;-82
2022/12/07 13:22:30;;;;;;;4.65;1.00;;;4.10;99.90;;;;;;5091180;28;20078;-81